sensor_id;sensor_type;location;lat;lon;timestamp;P1;durP1;ratioP1;P2;durP2;ratioP2
850;SDS011;412;51.400;7.480;2024-03-17T00:01:17;6.37;;;5.77;;
850;SDS011;412;51.400;7.480;2024-03-17T00:03:42;8.40;;;6.33;;
850;SDS011;412;51.400;7.480;2024-03-17T00:06:08;7.50;;;6.40;;
850;SDS011;412;51.400;7.480;2024-03-17T00:08:35;8.20;;;6.67;;
850;SDS011;412;51.400;7.480;2024-03-17T00:11:00;7.43;;;6.73;;
850;SDS011;412;51.400;7.480;2024-03-17T00:13:26;6.70;;;6.17;;
850;SDS011;412;51.400;7.480;2024-03-17T00:15:52;7.30;;;6.70;;
850;SDS011;412;51.400;7.480;2024-03-17T00:18:18;8.10;;;6.70;;
850;SDS011;412;51.400;7.480;2024-03-17T00:20:43;6.40;;;5.80;;
850;SDS011;412;51.400;7.480;2024-03-17T00:23:10;6.07;;;5.57;;
850;SDS011;412;51.400;7.480;2024-03-17T00:25:37;7.87;;;6.13;;
850;SDS011;412;51.400;7.480;2024-03-17T00:28:03;7.87;;;6.50;;
850;SDS011;412;51.400;7.480;2024-03-17T00:30:29;6.73;;;5.90;;
850;SDS011;412;51.400;7.480;2024-03-17T00:32:56;7.53;;;6.33;;
850;SDS011;412;51.400;7.480;2024-03-17T00:35:23;8.07;;;6.63;;
850;SDS011;412;51.400;7.480;2024-03-17T00:37:50;7.33;;;6.00;;
850;SDS011;412;51.400;7.480;2024-03-17T00:40:17;7.73;;;6.47;;
850;SDS011;412;51.400;7.480;2024-03-17T00:42:43;6.13;;;5.20;;
850;SDS011;412;51.400;7.480;2024-03-17T00:45:10;6.93;;;6.30;;
850;SDS011;412;51.400;7.480;2024-03-17T00:47:37;6.97;;;6.30;;
850;SDS011;412;51.400;7.480;2024-03-17T00:50:04;6.37;;;5.77;;
850;SDS011;412;51.400;7.480;2024-03-17T00:52:32;7.70;;;7.00;;
850;SDS011;412;51.400;7.480;2024-03-17T00:54:58;8.43;;;7.27;;
850;SDS011;412;51.400;7.480;2024-03-17T00:57:24;7.10;;;6.40;;
850;SDS011;412;51.400;7.480;2024-03-17T00:59:50;7.90;;;6.70;;
850;SDS011;412;51.400;7.480;2024-03-17T01:02:17;8.60;;;6.87;;
850;SDS011;412;51.400;7.480;2024-03-17T01:04:43;6.97;;;6.27;;
850;SDS011;412;51.400;7.480;2024-03-17T01:07:10;6.63;;;6.03;;
850;SDS011;412;51.400;7.480;2024-03-17T01:09:36;8.70;;;6.90;;
850;SDS011;412;51.400;7.480;2024-03-17T01:12:02;7.70;;;6.50;;
850;SDS011;412;51.400;7.480;2024-03-17T01:14:29;7.30;;;6.60;;
850;SDS011;412;51.400;7.480;2024-03-17T01:16:55;6.43;;;5.83;;
850;SDS011;412;51.400;7.480;2024-03-17T01:19:22;7.50;;;5.97;;
850;SDS011;412;51.400;7.480;2024-03-17T01:21:48;10.17;;;6.90;;
850;SDS011;412;51.400;7.480;2024-03-17T01:24:14;8.50;;;6.13;;
850;SDS011;412;51.400;7.480;2024-03-17T01:26:39;7.30;;;6.60;;
850;SDS011;412;51.400;7.480;2024-03-17T01:29:05;6.97;;;6.37;;
850;SDS011;412;51.400;7.480;2024-03-17T01:31:31;5.80;;;5.30;;
850;SDS011;412;51.400;7.480;2024-03-17T01:33:57;7.83;;;6.63;;
850;SDS011;412;51.400;7.480;2024-03-17T01:36:22;7.47;;;6.77;;
850;SDS011;412;51.400;7.480;2024-03-17T01:38:49;7.60;;;6.47;;
850;SDS011;412;51.400;7.480;2024-03-17T01:41:15;10.23;;;7.03;;
850;SDS011;412;51.400;7.480;2024-03-17T01:43:41;7.70;;;6.50;;
850;SDS011;412;51.400;7.480;2024-03-17T01:46:10;9.00;;;6.57;;
850;SDS011;412;51.400;7.480;2024-03-17T01:48:38;7.47;;;6.57;;
850;SDS011;412;51.400;7.480;2024-03-17T01:51:05;6.93;;;5.50;;
850;SDS011;412;51.400;7.480;2024-03-17T01:53:32;8.53;;;6.80;;
850;SDS011;412;51.400;7.480;2024-03-17T01:55:58;7.30;;;6.63;;
850;SDS011;412;51.400;7.480;2024-03-17T01:58:25;6.87;;;6.20;;
850;SDS011;412;51.400;7.480;2024-03-17T02:00:52;6.87;;;6.03;;
850;SDS011;412;51.400;7.480;2024-03-17T02:03:18;7.33;;;6.63;;
850;SDS011;412;51.400;7.480;2024-03-17T02:05:47;12.73;;;6.93;;
850;SDS011;412;51.400;7.480;2024-03-17T02:08:13;7.40;;;6.70;;
850;SDS011;412;51.400;7.480;2024-03-17T02:10:38;7.80;;;7.00;;
850;SDS011;412;51.400;7.480;2024-03-17T02:13:04;8.50;;;7.10;;
850;SDS011;412;51.400;7.480;2024-03-17T02:15:31;8.63;;;7.23;;
850;SDS011;412;51.400;7.480;2024-03-17T02:17:57;7.13;;;6.40;;
850;SDS011;412;51.400;7.480;2024-03-17T02:20:24;6.80;;;6.03;;
850;SDS011;412;51.400;7.480;2024-03-17T02:23:10;8.30;;;6.90;;
850;SDS011;412;51.400;7.480;2024-03-17T02:25:36;7.83;;;7.13;;
850;SDS011;412;51.400;7.480;2024-03-17T02:28:01;7.37;;;6.67;;
850;SDS011;412;51.400;7.480;2024-03-17T02:30:28;8.80;;;6.83;;
850;SDS011;412;51.400;7.480;2024-03-17T02:32:54;6.53;;;5.97;;
850;SDS011;412;51.400;7.480;2024-03-17T02:35:23;7.00;;;6.30;;
850;SDS011;412;51.400;7.480;2024-03-17T02:37:49;6.83;;;6.23;;
850;SDS011;412;51.400;7.480;2024-03-17T02:40:15;6.90;;;6.30;;
850;SDS011;412;51.400;7.480;2024-03-17T02:42:42;12.00;;;7.30;;
850;SDS011;412;51.400;7.480;2024-03-17T02:45:10;7.63;;;6.60;;
850;SDS011;412;51.400;7.480;2024-03-17T02:47:39;8.37;;;6.97;;
850;SDS011;412;51.400;7.480;2024-03-17T02:50:05;6.80;;;6.20;;
850;SDS011;412;51.400;7.480;2024-03-17T02:52:32;8.20;;;7.20;;
850;SDS011;412;51.400;7.480;2024-03-17T02:54:57;6.93;;;6.13;;
850;SDS011;412;51.400;7.480;2024-03-17T02:57:24;7.50;;;6.70;;
850;SDS011;412;51.400;7.480;2024-03-17T02:59:54;7.37;;;6.67;;
850;SDS011;412;51.400;7.480;2024-03-17T03:02:20;8.77;;;6.20;;
850;SDS011;412;51.400;7.480;2024-03-17T03:04:46;7.53;;;6.83;;
850;SDS011;412;51.400;7.480;2024-03-17T03:07:12;9.83;;;7.27;;
850;SDS011;412;51.400;7.480;2024-03-17T03:09:37;7.63;;;6.80;;
850;SDS011;412;51.400;7.480;2024-03-17T03:12:03;7.37;;;6.67;;
850;SDS011;412;51.400;7.480;2024-03-17T03:14:30;6.80;;;6.10;;
850;SDS011;412;51.400;7.480;2024-03-17T03:16:57;13.60;;;7.13;;
850;SDS011;412;51.400;7.480;2024-03-17T03:19:23;7.90;;;6.80;;
850;SDS011;412;51.400;7.480;2024-03-17T03:21:49;10.07;;;6.63;;
850;SDS011;412;51.400;7.480;2024-03-17T03:24:15;8.40;;;6.83;;
850;SDS011;412;51.400;7.480;2024-03-17T03:26:42;7.13;;;6.20;;
850;SDS011;412;51.400;7.480;2024-03-17T03:29:08;6.73;;;6.03;;
850;SDS011;412;51.400;7.480;2024-03-17T03:31:35;8.47;;;6.30;;
850;SDS011;412;51.400;7.480;2024-03-17T03:34:04;8.20;;;6.90;;
850;SDS011;412;51.400;7.480;2024-03-17T03:36:32;6.83;;;6.13;;
850;SDS011;412;51.400;7.480;2024-03-17T03:38:58;8.60;;;6.87;;
850;SDS011;412;51.400;7.480;2024-03-17T03:41:24;7.30;;;6.60;;
850;SDS011;412;51.400;7.480;2024-03-17T03:43:50;8.37;;;6.97;;
850;SDS011;412;51.400;7.480;2024-03-17T03:46:16;8.10;;;6.20;;
850;SDS011;412;51.400;7.480;2024-03-17T03:48:42;7.40;;;6.50;;
850;SDS011;412;51.400;7.480;2024-03-17T03:51:09;7.53;;;6.57;;
850;SDS011;412;51.400;7.480;2024-03-17T03:53:35;7.97;;;7.20;;
850;SDS011;412;51.400;7.480;2024-03-17T03:56:02;8.20;;;6.50;;
850;SDS011;412;51.400;7.480;2024-03-17T03:58:37;7.10;;;6.30;;
850;SDS011;412;51.400;7.480;2024-03-17T04:01:06;7.07;;;6.37;;
850;SDS011;412;51.400;7.480;2024-03-17T04:03:33;7.43;;;6.60;;
850;SDS011;412;51.400;7.480;2024-03-17T04:06:05;6.63;;;6.00;;
850;SDS011;412;51.400;7.480;2024-03-17T04:08:36;7.33;;;6.63;;
850;SDS011;412;51.400;7.480;2024-03-17T04:11:04;7.90;;;6.20;;
850;SDS011;412;51.400;7.480;2024-03-17T04:13:31;7.20;;;6.33;;
850;SDS011;412;51.400;7.480;2024-03-17T04:15:58;8.20;;;6.50;;
850;SDS011;412;51.400;7.480;2024-03-17T04:18:27;7.37;;;6.60;;
850;SDS011;412;51.400;7.480;2024-03-17T04:20:55;7.13;;;6.30;;
850;SDS011;412;51.400;7.480;2024-03-17T04:23:22;6.60;;;6.00;;
850;SDS011;412;51.400;7.480;2024-03-17T04:25:51;7.57;;;6.40;;
850;SDS011;412;51.400;7.480;2024-03-17T04:28:17;8.30;;;7.43;;
850;SDS011;412;51.400;7.480;2024-03-17T04:30:43;10.60;;;7.77;;
850;SDS011;412;51.400;7.480;2024-03-17T04:33:10;7.87;;;7.00;;
850;SDS011;412;51.400;7.480;2024-03-17T04:35:36;7.67;;;6.90;;
850;SDS011;412;51.400;7.480;2024-03-17T04:38:03;8.53;;;7.10;;
850;SDS011;412;51.400;7.480;2024-03-17T04:40:29;7.27;;;6.57;;
850;SDS011;412;51.400;7.480;2024-03-17T04:42:55;7.80;;;6.70;;
850;SDS011;412;51.400;7.480;2024-03-17T04:45:21;7.37;;;6.70;;
850;SDS011;412;51.400;7.480;2024-03-17T04:47:47;9.93;;;6.80;;
850;SDS011;412;51.400;7.480;2024-03-17T04:50:12;9.40;;;7.30;;
850;SDS011;412;51.400;7.480;2024-03-17T04:52:38;7.27;;;6.57;;
850;SDS011;412;51.400;7.480;2024-03-17T04:55:04;8.50;;;7.17;;
850;SDS011;412;51.400;7.480;2024-03-17T04:57:30;8.33;;;7.50;;
850;SDS011;412;51.400;7.480;2024-03-17T04:59:56;8.03;;;7.00;;
850;SDS011;412;51.400;7.480;2024-03-17T05:02:21;7.13;;;6.40;;
850;SDS011;412;51.400;7.480;2024-03-17T05:04:49;8.33;;;7.53;;
850;SDS011;412;51.400;7.480;2024-03-17T05:07:15;10.07;;;7.73;;
850;SDS011;412;51.400;7.480;2024-03-17T05:09:41;9.00;;;6.70;;
850;SDS011;412;51.400;7.480;2024-03-17T05:12:09;8.03;;;6.80;;
850;SDS011;412;51.400;7.480;2024-03-17T05:14:35;11.00;;;8.10;;
850;SDS011;412;51.400;7.480;2024-03-17T05:17:01;10.93;;;7.57;;
850;SDS011;412;51.400;7.480;2024-03-17T05:19:27;10.00;;;7.27;;
850;SDS011;412;51.400;7.480;2024-03-17T05:21:52;7.03;;;6.33;;
850;SDS011;412;51.400;7.480;2024-03-17T05:24:18;7.87;;;7.17;;
850;SDS011;412;51.400;7.480;2024-03-17T05:26:44;8.50;;;6.90;;
850;SDS011;412;51.400;7.480;2024-03-17T05:29:11;7.93;;;7.13;;
850;SDS011;412;51.400;7.480;2024-03-17T05:31:37;8.20;;;7.30;;
850;SDS011;412;51.400;7.480;2024-03-17T05:34:07;12.27;;;7.40;;
850;SDS011;412;51.400;7.480;2024-03-17T05:36:35;7.87;;;7.10;;
850;SDS011;412;51.400;7.480;2024-03-17T05:39:01;7.63;;;6.40;;
850;SDS011;412;51.400;7.480;2024-03-17T05:41:27;10.97;;;6.50;;
850;SDS011;412;51.400;7.480;2024-03-17T05:43:53;8.73;;;6.70;;
850;SDS011;412;51.400;7.480;2024-03-17T05:46:23;8.67;;;7.20;;
850;SDS011;412;51.400;7.480;2024-03-17T05:48:51;8.17;;;7.33;;
850;SDS011;412;51.400;7.480;2024-03-17T05:51:16;8.90;;;7.70;;
850;SDS011;412;51.400;7.480;2024-03-17T05:53:42;8.13;;;7.33;;
850;SDS011;412;51.400;7.480;2024-03-17T05:56:09;8.47;;;7.40;;
850;SDS011;412;51.400;7.480;2024-03-17T05:58:38;9.50;;;7.27;;
850;SDS011;412;51.400;7.480;2024-03-17T06:01:05;10.53;;;7.67;;
850;SDS011;412;51.400;7.480;2024-03-17T06:03:32;9.30;;;7.90;;
850;SDS011;412;51.400;7.480;2024-03-17T06:06:00;10.63;;;7.30;;
850;SDS011;412;51.400;7.480;2024-03-17T06:08:27;8.80;;;7.10;;
850;SDS011;412;51.400;7.480;2024-03-17T06:10:52;6.97;;;6.33;;
850;SDS011;412;51.400;7.480;2024-03-17T06:13:18;7.40;;;6.63;;
850;SDS011;412;51.400;7.480;2024-03-17T06:15:44;9.70;;;7.50;;
850;SDS011;412;51.400;7.480;2024-03-17T06:18:12;9.40;;;6.80;;
850;SDS011;412;51.400;7.480;2024-03-17T06:20:40;12.87;;;7.37;;
850;SDS011;412;51.400;7.480;2024-03-17T06:23:12;9.17;;;7.60;;
850;SDS011;412;51.400;7.480;2024-03-17T06:28:06;8.40;;;7.50;;
850;SDS011;412;51.400;7.480;2024-03-17T06:30:33;11.00;;;7.80;;
850;SDS011;412;51.400;7.480;2024-03-17T06:33:01;8.87;;;7.97;;
850;SDS011;412;51.400;7.480;2024-03-17T06:35:26;9.13;;;7.90;;
850;SDS011;412;51.400;7.480;2024-03-17T06:37:54;9.53;;;7.80;;
850;SDS011;412;51.400;7.480;2024-03-17T06:40:20;8.10;;;7.30;;
850;SDS011;412;51.400;7.480;2024-03-17T06:42:45;8.90;;;8.00;;
850;SDS011;412;51.400;7.480;2024-03-17T06:45:11;8.33;;;7.50;;
850;SDS011;412;51.400;7.480;2024-03-17T06:47:37;10.10;;;8.20;;
850;SDS011;412;51.400;7.480;2024-03-17T06:50:06;10.23;;;8.47;;
850;SDS011;412;51.400;7.480;2024-03-17T06:52:35;9.27;;;8.27;;
850;SDS011;412;51.400;7.480;2024-03-17T06:55:01;9.30;;;7.70;;
850;SDS011;412;51.400;7.480;2024-03-17T06:57:27;9.53;;;7.97;;
850;SDS011;412;51.400;7.480;2024-03-17T06:59:53;10.83;;;8.90;;
850;SDS011;412;51.400;7.480;2024-03-17T07:02:19;10.80;;;8.43;;
850;SDS011;412;51.400;7.480;2024-03-17T07:04:47;10.93;;;9.00;;
850;SDS011;412;51.400;7.480;2024-03-17T07:07:13;11.90;;;9.10;;
850;SDS011;412;51.400;7.480;2024-03-17T07:09:40;11.33;;;9.27;;
850;SDS011;412;51.400;7.480;2024-03-17T07:12:09;12.83;;;9.77;;
850;SDS011;412;51.400;7.480;2024-03-17T07:14:36;10.57;;;8.83;;
850;SDS011;412;51.400;7.480;2024-03-17T07:17:02;9.50;;;8.50;;
850;SDS011;412;51.400;7.480;2024-03-17T07:19:28;10.60;;;8.50;;
850;SDS011;412;51.400;7.480;2024-03-17T07:21:56;12.47;;;9.50;;
850;SDS011;412;51.400;7.480;2024-03-17T07:24:22;10.33;;;8.33;;
850;SDS011;412;51.400;7.480;2024-03-17T07:26:48;10.67;;;9.60;;
850;SDS011;412;51.400;7.480;2024-03-17T07:29:15;11.77;;;9.33;;
850;SDS011;412;51.400;7.480;2024-03-17T07:31:41;14.80;;;10.70;;
850;SDS011;412;51.400;7.480;2024-03-17T07:34:06;15.60;;;9.73;;
850;SDS011;412;51.400;7.480;2024-03-17T07:36:32;11.50;;;9.80;;
850;SDS011;412;51.400;7.480;2024-03-17T07:38:58;10.50;;;9.33;;
850;SDS011;412;51.400;7.480;2024-03-17T07:41:23;11.00;;;9.13;;
850;SDS011;412;51.400;7.480;2024-03-17T07:43:50;10.50;;;9.47;;
850;SDS011;412;51.400;7.480;2024-03-17T07:46:16;9.83;;;8.93;;
850;SDS011;412;51.400;7.480;2024-03-17T07:48:42;10.40;;;8.00;;
850;SDS011;412;51.400;7.480;2024-03-17T07:51:12;14.23;;;9.33;;
850;SDS011;412;51.400;7.480;2024-03-17T07:53:43;11.20;;;9.37;;
850;SDS011;412;51.400;7.480;2024-03-17T07:56:13;9.00;;;8.10;;
850;SDS011;412;51.400;7.480;2024-03-17T07:58:41;8.87;;;7.97;;
850;SDS011;412;51.400;7.480;2024-03-17T08:01:11;9.60;;;8.20;;
850;SDS011;412;51.400;7.480;2024-03-17T08:03:38;8.83;;;7.93;;
850;SDS011;412;51.400;7.480;2024-03-17T08:06:06;8.20;;;7.40;;
850;SDS011;412;51.400;7.480;2024-03-17T08:08:33;8.90;;;8.10;;
850;SDS011;412;51.400;7.480;2024-03-17T08:10:59;8.80;;;7.90;;
850;SDS011;412;51.400;7.480;2024-03-17T08:13:28;8.90;;;7.87;;
850;SDS011;412;51.400;7.480;2024-03-17T08:16:06;8.73;;;7.37;;
850;SDS011;412;51.400;7.480;2024-03-17T08:18:35;8.67;;;6.90;;
850;SDS011;412;51.400;7.480;2024-03-17T08:21:01;8.97;;;7.83;;
850;SDS011;412;51.400;7.480;2024-03-17T08:23:31;10.27;;;8.17;;
850;SDS011;412;51.400;7.480;2024-03-17T08:25:59;7.37;;;6.50;;
850;SDS011;412;51.400;7.480;2024-03-17T08:28:25;7.50;;;5.80;;
850;SDS011;412;51.400;7.480;2024-03-17T08:30:59;7.60;;;6.10;;
850;SDS011;412;51.400;7.480;2024-03-17T08:33:29;8.33;;;5.17;;
850;SDS011;412;51.400;7.480;2024-03-17T08:35:56;5.73;;;5.23;;
850;SDS011;412;51.400;7.480;2024-03-17T08:38:29;5.87;;;5.37;;
850;SDS011;412;51.400;7.480;2024-03-17T08:40:56;7.23;;;4.87;;
850;SDS011;412;51.400;7.480;2024-03-17T08:43:32;5.33;;;4.77;;
850;SDS011;412;51.400;7.480;2024-03-17T08:45:58;9.87;;;5.53;;
850;SDS011;412;51.400;7.480;2024-03-17T08:48:27;17.30;;;12.07;;
850;SDS011;412;51.400;7.480;2024-03-17T08:50:54;9.77;;;7.90;;
850;SDS011;412;51.400;7.480;2024-03-17T08:53:20;6.00;;;5.43;;
850;SDS011;412;51.400;7.480;2024-03-17T08:55:46;6.00;;;5.50;;
850;SDS011;412;51.400;7.480;2024-03-17T08:58:12;5.27;;;4.77;;
850;SDS011;412;51.400;7.480;2024-03-17T09:00:38;5.33;;;4.93;;
850;SDS011;412;51.400;7.480;2024-03-17T09:03:06;5.87;;;5.37;;
850;SDS011;412;51.400;7.480;2024-03-17T09:05:35;5.10;;;4.70;;
850;SDS011;412;51.400;7.480;2024-03-17T09:08:01;5.53;;;4.93;;
850;SDS011;412;51.400;7.480;2024-03-17T09:10:27;4.77;;;4.37;;
850;SDS011;412;51.400;7.480;2024-03-17T09:12:53;4.83;;;4.43;;
850;SDS011;412;51.400;7.480;2024-03-17T09:15:19;5.60;;;5.10;;
850;SDS011;412;51.400;7.480;2024-03-17T09:17:46;5.87;;;5.37;;
850;SDS011;412;51.400;7.480;2024-03-17T09:20:12;5.80;;;5.30;;
850;SDS011;412;51.400;7.480;2024-03-17T09:22:40;6.20;;;5.60;;
850;SDS011;412;51.400;7.480;2024-03-17T09:25:07;5.67;;;4.93;;
850;SDS011;412;51.400;7.480;2024-03-17T09:27:33;5.23;;;4.80;;
850;SDS011;412;51.400;7.480;2024-03-17T09:30:02;8.13;;;4.90;;
850;SDS011;412;51.400;7.480;2024-03-17T09:32:31;7.00;;;6.40;;
850;SDS011;412;51.400;7.480;2024-03-17T09:34:57;7.23;;;5.30;;
850;SDS011;412;51.400;7.480;2024-03-17T09:37:24;7.40;;;6.70;;
850;SDS011;412;51.400;7.480;2024-03-17T09:39:50;5.03;;;4.60;;
850;SDS011;412;51.400;7.480;2024-03-17T09:42:19;5.70;;;5.20;;
850;SDS011;412;51.400;7.480;2024-03-17T09:44:48;5.80;;;4.70;;
850;SDS011;412;51.400;7.480;2024-03-17T09:47:18;5.03;;;4.53;;
850;SDS011;412;51.400;7.480;2024-03-17T09:49:46;5.57;;;4.27;;
850;SDS011;412;51.400;7.480;2024-03-17T09:52:20;4.83;;;4.53;;
850;SDS011;412;51.400;7.480;2024-03-17T09:55:08;4.70;;;4.40;;
850;SDS011;412;51.400;7.480;2024-03-17T09:57:38;8.70;;;6.83;;
850;SDS011;412;51.400;7.480;2024-03-17T10:00:11;7.97;;;6.40;;
850;SDS011;412;51.400;7.480;2024-03-17T10:02:43;5.20;;;4.70;;
850;SDS011;412;51.400;7.480;2024-03-17T10:05:19;5.00;;;4.50;;
850;SDS011;412;51.400;7.480;2024-03-17T10:07:48;4.20;;;3.80;;
850;SDS011;412;51.400;7.480;2024-03-17T10:10:15;4.90;;;4.27;;
850;SDS011;412;51.400;7.480;2024-03-17T10:12:43;5.37;;;4.97;;
850;SDS011;412;51.400;7.480;2024-03-17T10:15:10;5.67;;;5.17;;
850;SDS011;412;51.400;7.480;2024-03-17T10:17:37;5.20;;;4.70;;
850;SDS011;412;51.400;7.480;2024-03-17T10:20:10;4.80;;;4.40;;
850;SDS011;412;51.400;7.480;2024-03-17T10:23:02;4.20;;;3.90;;
850;SDS011;412;51.400;7.480;2024-03-17T10:25:29;4.73;;;4.33;;
850;SDS011;412;51.400;7.480;2024-03-17T10:27:57;4.23;;;3.93;;
850;SDS011;412;51.400;7.480;2024-03-17T10:30:23;5.23;;;4.70;;
850;SDS011;412;51.400;7.480;2024-03-17T10:32:58;4.97;;;4.27;;
850;SDS011;412;51.400;7.480;2024-03-17T10:37:57;5.67;;;5.23;;
850;SDS011;412;51.400;7.480;2024-03-17T10:40:24;9.20;;;8.23;;
850;SDS011;412;51.400;7.480;2024-03-17T10:42:51;5.50;;;5.10;;
850;SDS011;412;51.400;7.480;2024-03-17T10:45:17;5.20;;;4.80;;
850;SDS011;412;51.400;7.480;2024-03-17T10:47:43;4.87;;;4.40;;
850;SDS011;412;51.400;7.480;2024-03-17T10:50:16;5.47;;;4.97;;
850;SDS011;412;51.400;7.480;2024-03-17T10:52:44;5.57;;;4.90;;
850;SDS011;412;51.400;7.480;2024-03-17T10:55:11;4.87;;;4.50;;
850;SDS011;412;51.400;7.480;2024-03-17T10:57:45;9.83;;;5.57;;
850;SDS011;412;51.400;7.480;2024-03-17T11:00:14;5.27;;;4.40;;
850;SDS011;412;51.400;7.480;2024-03-17T11:02:45;5.50;;;5.00;;
850;SDS011;412;51.400;7.480;2024-03-17T11:07:42;5.50;;;5.00;;
850;SDS011;412;51.400;7.480;2024-03-17T11:10:14;6.27;;;5.47;;
850;SDS011;412;51.400;7.480;2024-03-17T11:12:54;5.33;;;4.93;;
850;SDS011;412;51.400;7.480;2024-03-17T11:20:35;6.50;;;5.90;;
850;SDS011;412;51.400;7.480;2024-03-17T11:23:02;5.83;;;5.43;;
850;SDS011;412;51.400;7.480;2024-03-17T11:27:59;5.13;;;4.83;;
850;SDS011;412;51.400;7.480;2024-03-17T11:49:27;5.90;;;5.40;;
850;SDS011;412;51.400;7.480;2024-03-17T11:51:55;5.47;;;5.07;;
850;SDS011;412;51.400;7.480;2024-03-17T11:54:23;6.47;;;5.90;;
850;SDS011;412;51.400;7.480;2024-03-17T11:56:52;8.10;;;6.10;;
850;SDS011;412;51.400;7.480;2024-03-17T11:59:20;6.60;;;5.97;;
850;SDS011;412;51.400;7.480;2024-03-17T12:01:51;5.70;;;4.90;;
850;SDS011;412;51.400;7.480;2024-03-17T12:04:18;5.90;;;5.50;;
850;SDS011;412;51.400;7.480;2024-03-17T12:12:02;6.73;;;6.00;;
850;SDS011;412;51.400;7.480;2024-03-17T12:14:34;6.33;;;5.73;;
850;SDS011;412;51.400;7.480;2024-03-17T12:17:02;5.77;;;5.37;;
850;SDS011;412;51.400;7.480;2024-03-17T12:19:29;5.80;;;5.30;;
850;SDS011;412;51.400;7.480;2024-03-17T12:21:56;4.93;;;4.63;;
850;SDS011;412;51.400;7.480;2024-03-17T12:24:33;5.40;;;5.00;;
850;SDS011;412;51.400;7.480;2024-03-17T12:27:00;6.40;;;5.90;;
850;SDS011;412;51.400;7.480;2024-03-17T12:29:29;5.23;;;4.83;;
850;SDS011;412;51.400;7.480;2024-03-17T12:32:02;5.77;;;5.20;;
850;SDS011;412;51.400;7.480;2024-03-17T12:34:31;5.20;;;4.80;;
850;SDS011;412;51.400;7.480;2024-03-17T12:36:58;6.57;;;5.80;;
850;SDS011;412;51.400;7.480;2024-03-17T12:39:25;5.30;;;4.80;;
850;SDS011;412;51.400;7.480;2024-03-17T12:42:11;5.60;;;5.10;;
850;SDS011;412;51.400;7.480;2024-03-17T12:44:39;5.83;;;5.20;;
850;SDS011;412;51.400;7.480;2024-03-17T12:47:15;5.60;;;5.10;;
850;SDS011;412;51.400;7.480;2024-03-17T12:49:47;5.60;;;5.20;;
850;SDS011;412;51.400;7.480;2024-03-17T12:52:22;6.00;;;5.50;;
850;SDS011;412;51.400;7.480;2024-03-17T12:57:53;5.40;;;5.00;;
850;SDS011;412;51.400;7.480;2024-03-17T13:03:25;6.07;;;5.57;;
850;SDS011;412;51.400;7.480;2024-03-17T13:05:52;5.73;;;5.20;;
850;SDS011;412;51.400;7.480;2024-03-17T13:08:18;6.20;;;5.70;;
850;SDS011;412;51.400;7.480;2024-03-17T13:10:44;5.70;;;5.30;;
850;SDS011;412;51.400;7.480;2024-03-17T13:13:10;5.50;;;5.00;;
850;SDS011;412;51.400;7.480;2024-03-17T13:15:40;5.53;;;5.23;;
850;SDS011;412;51.400;7.480;2024-03-17T13:18:07;5.30;;;4.67;;
850;SDS011;412;51.400;7.480;2024-03-17T13:20:33;4.90;;;4.60;;
850;SDS011;412;51.400;7.480;2024-03-17T13:23:00;5.13;;;4.73;;
850;SDS011;412;51.400;7.480;2024-03-17T13:25:27;6.37;;;5.27;;
850;SDS011;412;51.400;7.480;2024-03-17T13:28:01;5.00;;;4.47;;
850;SDS011;412;51.400;7.480;2024-03-17T13:30:32;5.30;;;4.80;;
850;SDS011;412;51.400;7.480;2024-03-17T13:33:01;7.93;;;5.57;;
850;SDS011;412;51.400;7.480;2024-03-17T13:35:29;5.33;;;4.83;;
850;SDS011;412;51.400;7.480;2024-03-17T13:37:56;5.07;;;4.67;;
850;SDS011;412;51.400;7.480;2024-03-17T13:40:29;4.47;;;4.13;;
850;SDS011;412;51.400;7.480;2024-03-17T13:42:55;5.07;;;4.57;;
850;SDS011;412;51.400;7.480;2024-03-17T13:45:22;4.97;;;4.50;;
850;SDS011;412;51.400;7.480;2024-03-17T13:47:55;5.10;;;4.63;;
850;SDS011;412;51.400;7.480;2024-03-17T13:50:22;8.20;;;5.30;;
850;SDS011;412;51.400;7.480;2024-03-17T13:52:49;4.83;;;4.53;;
850;SDS011;412;51.400;7.480;2024-03-17T13:55:18;4.30;;;4.00;;
850;SDS011;412;51.400;7.480;2024-03-17T13:57:46;4.10;;;3.80;;
850;SDS011;412;51.400;7.480;2024-03-17T14:00:14;4.10;;;3.80;;
850;SDS011;412;51.400;7.480;2024-03-17T14:02:48;4.57;;;4.27;;
850;SDS011;412;51.400;7.480;2024-03-17T14:05:15;9.10;;;8.20;;
850;SDS011;412;51.400;7.480;2024-03-17T14:07:43;5.40;;;5.00;;
850;SDS011;412;51.400;7.480;2024-03-17T14:10:10;5.40;;;5.00;;
850;SDS011;412;51.400;7.480;2024-03-17T14:12:37;3.90;;;3.60;;
850;SDS011;412;51.400;7.480;2024-03-17T14:15:04;4.87;;;4.53;;
850;SDS011;412;51.400;7.480;2024-03-17T14:17:31;4.77;;;4.07;;
850;SDS011;412;51.400;7.480;2024-03-17T14:19:58;5.50;;;4.93;;
850;SDS011;412;51.400;7.480;2024-03-17T14:22:24;4.13;;;3.93;;
850;SDS011;412;51.400;7.480;2024-03-17T14:24:50;4.43;;;4.03;;
850;SDS011;412;51.400;7.480;2024-03-17T14:27:16;4.83;;;4.40;;
850;SDS011;412;51.400;7.480;2024-03-17T14:29:45;4.67;;;4.27;;
850;SDS011;412;51.400;7.480;2024-03-17T14:32:11;5.60;;;5.10;;
850;SDS011;412;51.400;7.480;2024-03-17T14:34:39;4.90;;;4.60;;
850;SDS011;412;51.400;7.480;2024-03-17T14:37:04;4.30;;;4.03;;
850;SDS011;412;51.400;7.480;2024-03-17T14:39:30;4.87;;;4.57;;
850;SDS011;412;51.400;7.480;2024-03-17T14:41:57;4.70;;;4.40;;
850;SDS011;412;51.400;7.480;2024-03-17T14:44:23;5.00;;;4.70;;
850;SDS011;412;51.400;7.480;2024-03-17T14:46:49;5.50;;;4.17;;
850;SDS011;412;51.400;7.480;2024-03-17T14:49:18;4.63;;;4.33;;
850;SDS011;412;51.400;7.480;2024-03-17T14:51:44;5.13;;;4.83;;
850;SDS011;412;51.400;7.480;2024-03-17T14:54:10;5.20;;;4.87;;
850;SDS011;412;51.400;7.480;2024-03-17T14:56:36;5.60;;;5.20;;
850;SDS011;412;51.400;7.480;2024-03-17T14:59:02;5.27;;;4.80;;
850;SDS011;412;51.400;7.480;2024-03-17T15:01:28;4.50;;;4.30;;
850;SDS011;412;51.400;7.480;2024-03-17T15:03:57;4.93;;;4.53;;
850;SDS011;412;51.400;7.480;2024-03-17T15:06:23;4.63;;;4.43;;
850;SDS011;412;51.400;7.480;2024-03-17T15:08:50;4.17;;;3.97;;
850;SDS011;412;51.400;7.480;2024-03-17T15:11:16;4.77;;;4.37;;
850;SDS011;412;51.400;7.480;2024-03-17T15:13:43;4.33;;;4.13;;
850;SDS011;412;51.400;7.480;2024-03-17T15:16:09;4.20;;;3.90;;
850;SDS011;412;51.400;7.480;2024-03-17T15:18:35;4.63;;;4.33;;
850;SDS011;412;51.400;7.480;2024-03-17T15:21:02;4.97;;;4.00;;
850;SDS011;412;51.400;7.480;2024-03-17T15:23:30;4.33;;;4.03;;
850;SDS011;412;51.400;7.480;2024-03-17T15:26:03;4.00;;;3.90;;
850;SDS011;412;51.400;7.480;2024-03-17T15:28:38;4.30;;;4.00;;
850;SDS011;412;51.400;7.480;2024-03-17T15:31:05;4.57;;;4.20;;
850;SDS011;412;51.400;7.480;2024-03-17T15:33:34;5.00;;;4.60;;
850;SDS011;412;51.400;7.480;2024-03-17T15:36:05;4.07;;;3.87;;
850;SDS011;412;51.400;7.480;2024-03-17T15:38:32;4.20;;;3.90;;
850;SDS011;412;51.400;7.480;2024-03-17T15:41:01;4.30;;;4.00;;
850;SDS011;412;51.400;7.480;2024-03-17T15:43:34;4.10;;;3.90;;
850;SDS011;412;51.400;7.480;2024-03-17T15:46:00;5.63;;;4.80;;
850;SDS011;412;51.400;7.480;2024-03-17T15:48:26;4.10;;;3.90;;
850;SDS011;412;51.400;7.480;2024-03-17T15:50:56;4.40;;;4.20;;
850;SDS011;412;51.400;7.480;2024-03-17T15:53:22;4.20;;;4.00;;
850;SDS011;412;51.400;7.480;2024-03-17T15:55:57;4.00;;;3.80;;
850;SDS011;412;51.400;7.480;2024-03-17T15:58:24;5.13;;;4.90;;
850;SDS011;412;51.400;7.480;2024-03-17T16:00:50;5.73;;;5.43;;
850;SDS011;412;51.400;7.480;2024-03-17T16:03:17;5.37;;;5.07;;
850;SDS011;412;51.400;7.480;2024-03-17T16:05:46;5.63;;;5.13;;
850;SDS011;412;51.400;7.480;2024-03-17T16:08:13;6.13;;;5.60;;
850;SDS011;412;51.400;7.480;2024-03-17T16:10:41;5.10;;;4.90;;
850;SDS011;412;51.400;7.480;2024-03-17T16:13:10;4.17;;;3.97;;
850;SDS011;412;51.400;7.480;2024-03-17T16:15:38;4.40;;;4.10;;
850;SDS011;412;51.400;7.480;2024-03-17T16:18:03;4.50;;;4.13;;
850;SDS011;412;51.400;7.480;2024-03-17T16:23:17;4.70;;;4.20;;
850;SDS011;412;51.400;7.480;2024-03-17T16:25:49;5.50;;;5.10;;
850;SDS011;412;51.400;7.480;2024-03-17T16:28:18;4.43;;;4.17;;
850;SDS011;412;51.400;7.480;2024-03-17T16:30:46;4.87;;;4.57;;
850;SDS011;412;51.400;7.480;2024-03-17T16:33:12;5.10;;;4.60;;
850;SDS011;412;51.400;7.480;2024-03-17T16:35:39;4.70;;;4.40;;